LIMW/AOT METAR and TAF weather

Enter ICAO airport designator
Station Type Date Time Source
LIMW METAR 2020/10/20 16:20 UTC NOAA

LIMW 201620Z AUTO 11009KT 9999 OVC063/// 11/08 Q1024


Station Type Date Time Source
LIMW Decoded METAR 2020/10/20 16:20 UTC NOAA

Station name not available
Oct 20, 2020 - 12:20 PM EDT / 2020.10.20 1620 UTC
Wind: from the ESE (110 degrees) at 10 MPH (9 KT):0
Visibility: greater than 7 mile(s):0
Sky conditions: overcast
Temperature: 51 F (11 C)
Dew Point: 46 F (8 C)
Relative Humidity: 81%
Pressure (altimeter): 30.24 in. Hg (1024 hPa)
ob: LIMW 201620Z AUTO 11009KT 9999 OVC063/// 11/08 Q1024
cycle: 16

Station Type Date Time Source
LIMW TAF UTC NOAA

Error!

Example: see airport list